createdAt,value
2018-04-01T00:03:02.819Z,1.00
2018-04-01T00:07:45.470Z,0.90
2018-04-01T00:12:28.933Z,0.90
2018-04-01T00:17:11.578Z,0.90
2018-04-01T00:21:54.244Z,0.90
2018-04-01T00:26:36.793Z,1.00
2018-04-01T00:31:20.185Z,0.90
2018-04-01T00:36:02.779Z,0.90
2018-04-01T00:40:45.395Z,0.90
2018-04-01T00:45:28.017Z,0.90
2018-04-01T00:50:10.666Z,1.00
2018-04-01T00:54:53.375Z,1.00
2018-04-01T00:59:36.080Z,1.10
2018-04-01T01:04:18.661Z,1.10
2018-04-01T01:09:01.273Z,1.10
2018-04-01T01:13:43.883Z,1.20
2018-04-01T01:18:26.518Z,1.10
2018-04-01T01:23:09.120Z,1.10
2018-04-01T01:27:51.778Z,1.20
2018-04-01T01:32:35.197Z,1.20
2018-04-01T01:37:17.802Z,1.20
2018-04-01T01:42:00.456Z,1.20
2018-04-01T01:46:43.071Z,1.20
2018-04-01T01:51:25.763Z,1.20
2018-04-01T01:56:08.453Z,1.20
2018-04-01T02:00:51.072Z,1.30
2018-04-01T02:05:33.650Z,1.20
2018-04-01T02:10:16.264Z,1.20
2018-04-01T02:14:58.901Z,1.10
2018-04-01T02:19:41.559Z,1.10
2018-04-01T02:24:24.999Z,1.10
2018-04-01T02:29:08.215Z,1.00
2018-04-01T02:33:50.867Z,1.10
2018-04-01T02:38:33.648Z,1.10
2018-04-01T02:43:16.252Z,1.10
2018-04-01T02:47:58.860Z,1.10
2018-04-01T02:52:41.510Z,1.00
2018-04-01T02:57:24.108Z,1.00
2018-04-01T03:02:06.778Z,1.00
2018-04-01T03:06:49.425Z,1.00
2018-04-01T03:11:32.020Z,0.90
2018-04-01T03:16:14.646Z,0.80
2018-04-01T03:20:57.272Z,0.80
2018-04-01T03:25:39.887Z,0.70
2018-04-01T03:30:22.602Z,0.70
2018-04-01T03:35:05.204Z,0.70
2018-04-01T03:39:47.899Z,0.70
2018-04-01T03:44:30.503Z,0.70
2018-04-01T03:49:13.082Z,0.70
2018-04-01T03:53:55.705Z,0.70
2018-04-01T03:58:38.352Z,0.60
2018-04-01T04:03:21.017Z,0.60
2018-04-01T04:08:03.619Z,0.50
2018-04-01T04:12:46.245Z,0.60
2018-04-01T04:17:29.004Z,0.60
2018-04-01T04:22:11.690Z,0.60
2018-04-01T04:26:54.365Z,0.60
2018-04-01T04:31:37.070Z,0.50
2018-04-01T04:36:19.700Z,0.60
2018-04-01T04:41:02.310Z,0.60
2018-04-01T04:45:44.992Z,0.60
2018-04-01T04:50:27.614Z,0.60
2018-04-01T04:55:10.227Z,0.60
2018-04-01T04:59:53.023Z,0.60
2018-04-01T05:04:35.697Z,0.70
2018-04-01T05:09:18.315Z,0.70
2018-04-01T05:14:00.940Z,0.70
2018-04-01T05:18:43.559Z,0.70
2018-04-01T05:23:26.180Z,0.80
2018-04-01T05:28:08.824Z,0.80
2018-04-01T05:32:51.384Z,0.70
2018-04-01T05:37:34.067Z,0.80
2018-04-01T05:42:16.709Z,0.70
2018-04-01T05:46:59.314Z,0.60
2018-04-01T05:51:41.912Z,0.60
2018-04-01T05:56:25.340Z,0.50
2018-04-01T06:01:08.738Z,0.50
2018-04-01T06:05:51.313Z,0.50
2018-04-01T06:10:34.687Z,0.50
2018-04-01T06:15:17.283Z,0.50
2018-04-01T06:19:59.928Z,0.50
2018-04-01T06:24:42.533Z,0.50
2018-04-01T06:29:25.142Z,0.50
2018-04-01T06:34:08.524Z,0.80
2018-04-01T06:38:51.109Z,0.70
2018-04-01T06:43:34.482Z,1.00
2018-04-01T06:48:17.073Z,0.90
2018-04-01T06:53:01.347Z,1.20
2018-04-01T06:57:43.959Z,1.20
2018-04-01T07:02:27.262Z,1.20
2018-04-01T07:07:09.999Z,1.30
2018-04-01T07:11:52.703Z,1.30
2018-04-01T07:16:35.324Z,1.40
2018-04-01T07:21:20.820Z,1.50
2018-04-01T07:26:03.517Z,1.40
2018-04-01T07:30:46.126Z,1.50
2018-04-01T07:35:28.804Z,1.50
2018-04-01T07:40:11.498Z,1.50
2018-04-01T07:44:54.971Z,1.60
2018-04-01T07:49:37.622Z,1.60
2018-04-01T07:54:21.035Z,1.70
2018-04-01T07:59:03.709Z,1.70
2018-04-01T08:03:46.376Z,1.50
2018-04-01T08:08:28.988Z,1.50
2018-04-01T08:13:11.651Z,1.90
2018-04-01T08:17:54.276Z,1.90
2018-04-01T08:22:36.937Z,1.90
2018-04-01T08:27:19.582Z,1.90
2018-04-01T08:32:03.118Z,2.00
2018-04-01T08:36:46.611Z,2.00
2018-04-01T08:41:29.229Z,2.00
2018-04-01T08:46:11.802Z,2.10
2018-04-01T08:50:54.427Z,2.10
2018-04-01T08:55:37.443Z,2.10
2018-04-01T09:00:20.222Z,2.00
2018-04-01T09:05:02.881Z,2.00
2018-04-01T09:09:46.334Z,2.00
2018-04-01T09:14:29.024Z,2.00
2018-04-01T09:19:11.631Z,2.00
2018-04-01T09:23:54.262Z,1.90
2018-04-01T09:28:37.907Z,1.70
2018-04-01T09:33:20.611Z,1.60
2018-04-01T09:38:03.254Z,1.70
2018-04-01T09:42:45.957Z,1.60
2018-04-01T09:47:28.657Z,1.70
2018-04-01T09:52:11.278Z,1.90
2018-04-01T09:56:57.007Z,1.80
2018-04-01T10:01:40.120Z,2.00
2018-04-01T10:06:23.249Z,2.00
2018-04-01T10:11:06.635Z,2.00
2018-04-01T10:15:50.008Z,2.20
2018-04-01T10:20:33.366Z,2.30
2018-04-01T10:25:23.859Z,2.30
2018-04-01T10:30:07.250Z,2.40
2018-04-01T10:34:50.807Z,2.70
2018-04-01T10:39:34.899Z,3.00
2018-04-01T10:44:19.771Z,3.00
2018-04-01T10:49:03.498Z,3.00
2018-04-01T10:53:56.983Z,3.20
2018-04-01T10:58:39.861Z,3.10
2018-04-01T11:03:22.476Z,3.00
2018-04-01T11:08:05.909Z,3.00
2018-04-01T11:12:48.636Z,3.00
2018-04-01T11:18:34.579Z,2.80
2018-04-01T11:23:23.510Z,2.60
2018-04-01T11:28:07.537Z,2.60
2018-04-01T11:32:59.757Z,2.80
2018-04-01T11:37:44.210Z,3.20
2018-04-01T11:42:31.245Z,3.20
2018-04-01T11:47:15.942Z,3.20
2018-04-01T11:51:58.730Z,3.10
2018-04-01T11:56:41.553Z,3.00
2018-04-01T12:01:24.976Z,3.10
2018-04-01T12:06:16.877Z,3.30
2018-04-01T12:11:01.140Z,3.40
2018-04-01T12:21:01.198Z,3.60
2018-04-01T12:25:43.905Z,3.40
2018-04-01T12:30:26.626Z,3.30
2018-04-01T12:35:09.309Z,3.30
2018-04-01T12:39:52.665Z,4.30
2018-04-01T12:44:36.104Z,4.10
2018-04-01T12:49:21.391Z,4.10
2018-04-01T12:54:04.191Z,4.10
2018-04-01T12:58:46.785Z,4.00
2018-04-01T13:03:29.408Z,4.10
2018-04-01T13:08:12.054Z,4.30
2018-04-01T13:12:54.662Z,4.20
2018-04-01T13:17:37.450Z,4.20
2018-04-01T13:22:21.074Z,4.10
2018-04-01T13:27:03.665Z,4.10
2018-04-01T13:31:46.336Z,4.00
2018-04-01T13:36:29.703Z,4.20
2018-04-01T13:41:12.299Z,4.20
2018-04-01T13:45:54.975Z,4.10
2018-04-01T13:50:37.657Z,4.10
2018-04-01T13:55:21.393Z,4.10
2018-04-01T14:00:03.978Z,3.90
2018-04-01T14:04:46.617Z,3.80
2018-04-01T14:09:29.291Z,3.90
2018-04-01T14:14:12.024Z,4.20
2018-04-01T14:18:54.674Z,4.20
2018-04-01T14:23:37.568Z,4.30
2018-04-01T14:28:20.175Z,4.40
2018-04-01T14:33:02.777Z,4.10
2018-04-01T14:37:45.420Z,4.10
2018-04-01T14:42:28.827Z,4.10
2018-04-01T14:47:11.448Z,4.10
2018-04-01T14:51:54.424Z,4.10
2018-04-01T14:56:37.962Z,3.90
2018-04-01T15:01:21.355Z,3.70
2018-04-01T15:06:03.980Z,3.70
2018-04-01T15:10:46.667Z,3.70
2018-04-01T15:15:29.455Z,3.60
2018-04-01T15:20:12.856Z,3.60
2018-04-01T15:24:55.634Z,3.60
2018-04-01T15:29:38.341Z,3.50
2018-04-01T15:34:20.946Z,3.50
2018-04-01T15:39:03.536Z,3.60
2018-04-01T15:43:47.106Z,3.50
2018-04-01T15:48:30.169Z,3.30
2018-04-01T15:53:13.582Z,3.30
2018-04-01T15:57:56.209Z,3.30
2018-04-01T16:02:39.684Z,3.40
2018-04-01T16:07:22.340Z,3.30
2018-04-01T16:12:05.882Z,3.40
2018-04-01T16:16:49.326Z,3.40
2018-04-01T16:21:32.745Z,3.40
2018-04-01T16:26:15.857Z,3.30
2018-04-01T16:30:59.272Z,3.20
2018-04-01T16:35:41.981Z,3.20
2018-04-01T16:40:24.881Z,3.20
2018-04-01T16:45:07.478Z,3.10
2018-04-01T16:49:50.120Z,3.20
2018-04-01T16:54:32.699Z,3.10
2018-04-01T16:59:15.336Z,3.10
2018-04-01T17:03:58.029Z,3.10
2018-04-01T17:08:40.604Z,3.10
2018-04-01T17:13:23.273Z,3.00
2018-04-01T17:18:06.809Z,3.00
2018-04-01T17:22:49.470Z,2.90
2018-04-01T17:27:32.142Z,2.90
2018-04-01T17:32:15.531Z,2.80
2018-04-01T17:36:58.193Z,2.80
2018-04-01T17:41:40.883Z,2.80
2018-04-01T17:46:23.463Z,2.70
2018-04-01T17:51:06.898Z,2.70
2018-04-01T17:55:49.666Z,2.60
2018-04-01T18:00:32.606Z,2.60
2018-04-01T18:05:16.202Z,2.50
2018-04-01T18:09:58.851Z,2.40
2018-04-01T18:14:42.230Z,2.40
2018-04-01T18:19:25.041Z,2.30
2018-04-01T18:24:07.728Z,2.50
2018-04-01T18:28:51.079Z,2.40
2018-04-01T18:33:33.723Z,2.40
2018-04-01T18:38:16.477Z,2.40
2018-04-01T18:42:59.287Z,2.30
2018-04-01T18:47:41.895Z,2.20
2018-04-01T18:52:24.544Z,2.10
2018-04-01T18:57:07.295Z,2.10
2018-04-01T19:01:49.901Z,2.00
2018-04-01T19:06:32.486Z,1.90
2018-04-01T19:11:15.138Z,1.90
2018-04-01T19:15:58.254Z,1.90
2018-04-01T19:20:41.570Z,1.80
2018-04-01T19:25:24.945Z,1.80
2018-04-01T19:30:09.103Z,2.00
2018-04-01T19:34:52.526Z,2.00
2018-04-01T19:39:35.871Z,2.00
2018-04-01T19:44:19.223Z,2.10
2018-04-01T19:49:03.354Z,2.10
2018-04-01T19:53:46.680Z,2.10
2018-04-01T19:58:30.046Z,2.10
2018-04-01T20:03:13.939Z,2.10
2018-04-01T20:07:58.119Z,2.20
2018-04-01T20:12:42.426Z,2.20
2018-04-01T20:17:25.818Z,2.20
2018-04-01T20:22:09.160Z,2.20
2018-04-01T20:26:52.562Z,2.20
2018-04-01T20:31:38.602Z,2.20
2018-04-01T20:36:24.588Z,2.20
2018-04-01T20:41:08.312Z,2.30
2018-04-01T20:45:52.408Z,2.20
2018-04-01T20:50:36.968Z,2.30
2018-04-01T20:55:21.721Z,2.30
2018-04-01T21:00:05.426Z,2.20
2018-04-01T21:04:49.173Z,2.30
2018-04-01T21:09:34.760Z,2.30
2018-04-01T21:14:18.169Z,2.30
2018-04-01T21:19:01.719Z,2.30
2018-04-01T21:23:46.116Z,2.30
2018-04-01T21:28:31.645Z,2.20
2018-04-01T21:33:15.014Z,2.20
2018-04-01T21:37:58.728Z,2.20
2018-04-01T21:42:45.659Z,2.20
2018-04-01T21:47:29.807Z,1.90
2018-04-01T21:52:13.205Z,1.90
2018-04-01T21:56:57.301Z,1.70
2018-04-01T22:01:40.644Z,1.70
2018-04-01T22:06:23.990Z,1.80
2018-04-01T22:11:07.317Z,1.90
2018-04-01T22:15:50.652Z,1.90
2018-04-01T22:20:34.019Z,1.90
2018-04-01T22:25:17.308Z,1.90
2018-04-01T22:30:01.411Z,1.90
2018-04-01T22:34:44.766Z,1.90
2018-04-01T22:39:28.131Z,1.70
2018-04-01T22:44:12.231Z,1.80
2018-04-01T22:48:55.591Z,1.90
2018-04-01T22:53:38.956Z,1.90
2018-04-01T22:58:22.293Z,1.90
2018-04-01T23:03:06.463Z,1.90
2018-04-01T23:07:50.569Z,1.80
2018-04-01T23:12:33.954Z,1.80
2018-04-01T23:17:17.377Z,1.80
2018-04-01T23:22:00.802Z,1.90
2018-04-01T23:26:44.169Z,1.90
2018-04-01T23:31:27.498Z,1.70
2018-04-01T23:36:10.854Z,1.50
2018-04-01T23:40:54.222Z,1.40
2018-04-01T23:45:38.524Z,1.30
2018-04-01T23:50:22.012Z,1.20
2018-04-01T23:55:05.448Z,1.20
2018-04-01T23:59:48.766Z,1.10
